Time;durP1;ratioP1;P1;durP2;ratioP2;P2;SDS_P1;SDS_P2;PMS_P1;PMS_P2;Temp;Humidity;BMP_temperature;BMP_pressure;BME280_temperature;BME280_humidity;BME280_pressure;Samples;Min_cycle;Max_cycle;Signal;HPM_P1;HPM_P2
2022/03/07 00:02:05;;;;;;;15.93;8.50;;;;;;;1.79;76.37;94928.63;5029691;28;20120;-63
2022/03/07 00:04:31;;;;;;;13.45;8.98;;;;;;;1.08;76.39;94814.66;5030454;28;20034;-63
2022/03/07 00:06:56;;;;;;;15.13;9.35;;;;;;;1.77;76.55;94927.81;5030237;28;20040;-62
2022/03/07 00:09:21;;;;;;;15.30;9.10;;;;;;;1.06;77.02;94821.47;5029966;28;20033;-63
2022/03/07 00:11:47;;;;;;;16.25;10.43;;;;;;;1.47;77.42;94893.09;5029994;28;20030;-64
2022/03/07 00:14:12;;;;;;;17.95;10.75;;;;;;;1.69;77.45;94919.59;5029594;28;20084;-58
2022/03/07 00:16:38;;;;;;;17.35;8.93;;;;;;;1.60;77.35;94908.81;5029911;28;20033;-58
2022/03/07 00:19:04;;;;;;;17.02;9.73;;;;;;;1.66;77.80;94912.91;5029703;28;20131;-59
2022/03/07 00:21:30;;;;;;;16.42;9.20;;;;;;;1.55;77.69;94892.88;5030271;28;20033;-59
2022/03/07 00:23:55;;;;;;;19.92;10.65;;;;;;;1.69;77.58;94906.88;5030030;28;20492;-59
2022/03/07 00:26:21;;;;;;;20.52;10.50;;;;;;;1.50;77.92;94887.09;5029420;28;20095;-63
2022/03/07 00:28:48;;;;;;;20.35;10.70;;;;;;;1.71;77.79;94910.22;5029818;28;20021;-63
2022/03/07 00:31:15;;;;;;;15.40;10.18;;;;;;;1.46;77.82;94877.94;5029981;28;20037;-57
2022/03/07 00:33:41;;;;;;;18.83;10.48;;;;;;;1.68;77.83;94911.13;5029476;28;20041;-66
2022/03/07 00:36:07;;;;;;;17.02;9.18;;;;;;;1.74;77.64;94899.94;5029925;28;20536;-57
2022/03/07 00:38:33;;;;;;;17.95;9.65;;;;;;;1.70;77.42;94895.84;5029434;28;20033;-64
2022/03/07 00:40:59;;;;;;;20.08;10.07;;;;;;;1.40;77.89;94863.66;5029958;28;20471;-58
2022/03/07 00:43:25;;;;;;;15.32;9.10;;;;;;;1.49;78.38;94877.81;5029377;28;20036;-58
2022/03/07 00:45:51;;;;;;;15.45;9.63;;;;;;;1.53;78.64;94891.28;5029705;28;20470;-58
2022/03/07 00:48:17;;;;;;;16.08;9.52;;;;;;;1.52;78.64;94894.69;5028435;28;20041;-58
2022/03/07 00:50:47;;;;;;;16.58;10.32;;;;;;;1.53;78.33;94889.56;5028941;28;20025;-61
2022/03/07 00:53:13;;;;;;;18.08;9.43;;;;;;;1.54;78.37;94893.78;5029571;28;20029;-58
2022/03/07 00:55:40;;;;;;;16.67;10.15;;;;;;;1.52;78.01;94880.25;5029117;28;20112;-58
2022/03/07 00:58:05;;;;;;;15.57;9.88;;;;;;;1.63;77.84;94890.94;5029295;28;20805;-59
2022/03/07 01:00:32;;;;;;;15.20;9.38;;;;;;;1.42;77.71;94856.00;5028609;28;20116;-57
2022/03/07 01:02:58;;;;;;;16.80;10.63;;;;;;;1.60;77.62;94887.66;5028927;28;20040;-58
2022/03/07 01:05:23;;;;;;;14.23;9.30;;;;;;;1.73;76.98;94885.59;5029198;28;20656;-61
2022/03/07 01:07:49;;;;;;;19.02;11.45;;;;;;;1.68;76.97;94895.88;5029016;28;20167;-60
2022/03/07 01:10:14;;;;;;;13.57;9.38;;;;;;;1.68;77.16;94898.44;5028458;28;20391;-56
2022/03/07 01:12:40;;;;;;;14.82;9.88;;;;;;;1.70;77.49;94890.75;5010227;28;20037;-58
2022/03/07 01:15:08;;;;;;;17.55;9.70;;;;;;;1.70;76.20;94875.50;5028590;28;20042;-61
2022/03/07 01:17:34;;;;;;;18.55;10.68;;;;;;;1.85;76.19;94885.19;5028749;28;20021;-58
2022/03/07 01:19:59;;;;;;;16.98;9.82;;;;;;;1.75;75.88;94866.84;5028670;28;20026;-58
2022/03/07 01:22:24;;;;;;;15.40;9.88;;;;;;;1.78;76.59;94873.56;5028888;28;20031;-56
2022/03/07 01:24:50;;;;;;;14.13;9.40;;;;;;;1.55;77.17;94839.50;5027792;28;20037;-60
2022/03/07 01:27:15;;;;;;;12.95;8.85;;;;;;;1.59;77.44;94858.03;5028852;28;20029;-58
2022/03/07 01:29:41;;;;;;;13.75;8.85;;;;;;;1.29;77.63;94814.88;5028449;28;20071;-59
2022/03/07 01:32:06;;;;;;;12.68;7.85;;;;;;;1.59;77.43;94869.03;5028467;28;20473;-58
2022/03/07 01:34:32;;;;;;;12.50;8.52;;;;;;;1.57;77.70;94880.13;5028187;28;20167;-59
2022/03/07 01:36:57;;;;;;;11.60;7.68;;;;;;;0.81;77.97;94762.16;5028333;28;20102;-59
2022/03/07 01:39:23;;;;;;;12.32;7.45;;;;;;;1.57;77.53;94875.88;5028474;28;20036;-60
2022/03/07 01:41:48;;;;;;;13.38;7.97;;;;;;;1.55;77.66;94870.00;5028409;28;20025;-59
2022/03/07 01:44:20;;;;;;;10.90;7.95;;;;;;;1.33;77.92;94841.03;5028409;28;20021;-57
2022/03/07 01:46:47;;;;;;;11.82;8.45;;;;;;;1.39;78.09;94851.00;5028221;28;20033;-60
2022/03/07 01:49:13;;;;;;;11.75;7.38;;;;;;;0.96;78.14;94774.38;5027747;28;20029;-59
2022/03/07 01:51:41;;;;;;;12.95;9.20;;;;;;;1.54;78.04;94864.97;5028561;28;20523;-65
2022/03/07 01:54:09;;;;;;;12.73;8.55;;;;;;;0.52;78.18;94698.66;5028299;28;20036;-59
2022/03/07 01:56:35;;;;;;;10.88;7.35;;;;;;;1.59;78.08;94863.97;5027563;28;20120;-59
2022/03/07 01:59:03;;;;;;;13.13;8.65;;;;;;;1.60;77.82;94857.97;5027823;28;20158;-64
2022/03/07 02:01:29;;;;;;;13.32;8.60;;;;;;;1.41;77.89;94839.94;5027871;28;20026;-62
2022/03/07 02:03:54;;;;;;;10.98;7.85;;;;;;;1.67;77.79;94868.78;5027758;28;20036;-56
2022/03/07 02:06:21;;;;;;;11.82;7.63;;;;;;;1.26;77.69;94814.97;5027817;28;20310;-58
2022/03/07 02:08:48;;;;;;;12.32;8.45;;;;;;;1.52;77.76;94851.47;5027745;28;20029;-58
2022/03/07 02:11:15;;;;;;;11.80;8.63;;;;;;;1.52;77.27;94841.31;5027631;28;20021;-58
2022/03/07 02:13:41;;;;;;;12.30;8.75;;;;;;;1.67;77.13;94865.44;5027078;28;20091;-57
2022/03/07 02:16:06;;;;;;;10.93;8.70;;;;;;;1.43;77.60;94843.25;5027919;28;20547;-57
2022/03/07 02:18:32;;;;;;;13.15;9.13;;;;;;;1.56;77.58;94865.75;5027616;28;20127;-58
2022/03/07 02:21:08;;;;;;;11.80;8.18;;;;;;;1.54;77.83;94868.34;5027996;28;20033;-59
2022/03/07 02:23:35;;;;;;;12.05;8.48;;;;;;;1.56;77.72;94868.28;5027792;28;20758;-60
2022/03/07 02:26:07;;;;;;;11.20;8.38;;;;;;;1.34;77.79;94848.59;5027164;28;20026;-59
2022/03/07 02:28:33;;;;;;;12.18;8.45;;;;;;;1.29;77.61;94830.94;5027841;28;20029;-59
2022/03/07 02:30:58;;;;;;;10.75;7.28;;;;;;;1.49;77.28;94882.88;5027975;28;20029;-59
2022/03/07 02:33:24;;;;;;;11.13;7.57;;;;;;;1.23;77.64;94837.94;5027812;28;20442;-64
2022/03/07 02:35:49;;;;;;;10.93;7.35;;;;;;;1.00;77.38;94808.97;5027581;28;20021;-58
2022/03/07 02:38:16;;;;;;;9.70;7.35;;;;;;;1.16;77.20;94814.41;5027248;28;20723;-59
2022/03/07 02:40:42;;;;;;;9.57;7.25;;;;;;;1.33;77.32;94843.56;5027704;28;20038;-59
2022/03/07 02:43:08;;;;;;;10.93;7.22;;;;;;;1.55;76.87;94864.09;5027778;28;20034;-57
2022/03/07 02:45:34;;;;;;;11.93;7.43;;;;;;;1.37;77.03;94838.34;5027404;28;20414;-59
2022/03/07 02:47:59;;;;;;;9.85;6.57;;;;;;;1.56;77.32;94864.06;5027695;28;20037;-58
2022/03/07 02:50:25;;;;;;;10.80;6.82;;;;;;;1.27;76.70;94816.66;5027295;28;20029;-59
2022/03/07 02:52:51;;;;;;;10.18;6.65;;;;;;;1.63;77.03;94879.94;5027843;28;20030;-59
2022/03/07 02:55:16;;;;;;;11.40;6.38;;;;;;;1.61;76.87;94877.44;5027425;28;20404;-60
2022/03/07 02:57:42;;;;;;;9.15;6.13;;;;;;;1.58;76.81;94866.56;5027273;28;20029;-60
2022/03/07 03:00:09;;;;;;;9.48;6.80;;;;;;;1.68;76.21;94877.28;5027631;28;20029;-58
2022/03/07 03:02:35;;;;;;;10.25;6.43;;;;;;;1.70;76.57;94876.31;5027077;28;20029;-61
2022/03/07 03:05:00;;;;;;;11.68;6.43;;;;;;;1.74;76.15;94870.28;5027376;28;20052;-59
2022/03/07 03:07:25;;;;;;;12.75;6.50;;;;;;;1.43;76.30;94839.91;5027855;28;20332;-60
2022/03/07 03:09:51;;;;;;;10.55;6.65;;;;;;;1.42;76.85;94845.84;5025917;28;20025;-61
2022/03/07 03:12:16;;;;;;;13.15;7.60;;;;;;;1.50;77.33;94873.56;5028293;28;20029;-58
2022/03/07 03:14:42;;;;;;;10.63;7.07;;;;;;;1.49;77.68;94871.91;5031086;28;20057;-57
2022/03/07 03:17:07;;;;;;;10.55;7.47;;;;;;;1.50;77.60;94878.66;5031102;28;20025;-55
2022/03/07 03:19:33;;;;;;;11.65;7.50;;;;;;;1.60;77.22;94878.31;5030989;28;20115;-53
2022/03/07 03:21:58;;;;;;;12.18;7.07;;;;;;;1.58;77.82;94889.44;5030984;28;20030;-57
2022/03/07 03:24:24;;;;;;;10.85;7.38;;;;;;;1.52;77.67;94872.63;5030553;28;20123;-60
2022/03/07 03:26:49;;;;;;;10.95;7.07;;;;;;;1.60;78.23;94883.41;5030511;28;20029;-58
2022/03/07 03:29:14;;;;;;;10.50;6.85;;;;;;;1.50;78.00;94873.56;5030769;28;20045;-57
2022/03/07 03:31:40;;;;;;;10.88;7.45;;;;;;;1.56;78.42;94886.06;5030727;28;20045;-57
2022/03/07 03:34:05;;;;;;;9.65;6.63;;;;;;;1.40;78.39;94868.75;5030674;28;20369;-57
2022/03/07 03:36:31;;;;;;;10.15;5.95;;;;;;;1.47;79.20;94888.00;5030080;28;20034;-62
2022/03/07 03:38:56;;;;;;;9.00;6.25;;;;;;;1.37;79.70;94895.97;5030710;28;20033;-61
2022/03/07 03:41:22;;;;;;;9.05;6.50;;;;;;;1.29;79.85;94886.03;5030630;28;20095;-63
2022/03/07 03:43:47;;;;;;;11.10;6.30;;;;;;;1.26;80.20;94886.09;5030461;28;20120;-59
2022/03/07 03:46:15;;;;;;;8.73;6.63;;;;;;;1.04;80.02;94855.41;5031087;28;20032;-57
2022/03/07 03:48:41;;;;;;;10.60;6.47;;;;;;;1.24;79.94;94886.16;5030502;28;20768;-61
2022/03/07 03:51:10;;;;;;;9.93;6.35;;;;;;;1.24;79.21;94888.69;5031250;28;20204;-58
2022/03/07 03:53:36;;;;;;;11.68;7.32;;;;;;;1.23;79.72;94884.50;5031085;28;20119;-62
2022/03/07 03:56:01;;;;;;;10.48;6.28;;;;;;;1.08;79.33;94874.75;5030421;28;20485;-60
2022/03/07 03:58:26;;;;;;;10.00;7.07;;;;;;;1.22;79.71;94889.63;5030306;28;20048;-59
2022/03/07 04:00:52;;;;;;;9.38;7.03;;;;;;;1.20;79.69;94887.13;5029679;28;20022;-67
2022/03/07 04:03:18;;;;;;;11.05;6.93;;;;;;;0.93;79.77;94839.66;5030175;28;20025;-57
2022/03/07 04:05:44;;;;;;;11.07;6.95;;;;;;;1.22;79.73;94890.44;5030013;28;20021;-60
2022/03/07 04:08:09;;;;;;;11.32;7.13;;;;;;;1.20;79.19;94871.06;5030182;28;20132;-59
2022/03/07 04:10:35;;;;;;;10.88;7.50;;;;;;;1.42;78.74;94884.78;5030179;28;20037;-60
2022/03/07 04:13:00;;;;;;;11.00;6.45;;;;;;;1.38;78.86;94895.09;5029247;28;20843;-58
2022/03/07 04:15:26;;;;;;;10.50;7.10;;;;;;;1.35;78.90;94883.31;5029557;28;20440;-65
2022/03/07 04:17:52;;;;;;;11.68;6.88;;;;;;;1.18;78.39;94853.31;5029653;28;20035;-62
2022/03/07 04:20:18;;;;;;;10.02;7.35;;;;;;;1.28;78.92;94887.75;5028620;28;20029;-65
2022/03/07 04:22:43;;;;;;;8.80;6.53;;;;;;;1.40;79.00;94895.88;5029819;28;20039;-67
2022/03/07 04:25:09;;;;;;;10.05;7.15;;;;;;;1.06;78.79;94841.78;5029201;28;20044;-70
2022/03/07 04:27:36;;;;;;;10.32;6.60;;;;;;;1.32;78.57;94873.22;5029778;28;20079;-63
2022/03/07 04:30:03;;;;;;;11.13;7.82;;;;;;;1.38;77.40;94874.78;5029413;28;20032;-62
2022/03/07 04:32:30;;;;;;;11.18;7.00;;;;;;;1.52;77.64;94895.50;5029670;28;20067;-60
2022/03/07 04:34:56;;;;;;;9.63;6.82;;;;;;;1.53;77.85;94894.63;5029299;28;20094;-60
2022/03/07 04:37:21;;;;;;;9.77;6.93;;;;;;;1.24;77.49;94852.28;5029095;28;20029;-59
2022/03/07 04:39:46;;;;;;;10.85;6.97;;;;;;;1.60;76.52;94906.28;5029472;28;20037;-58
2022/03/07 04:42:12;;;;;;;10.18;6.65;;;;;;;1.56;77.15;94899.63;5029606;28;20032;-56
2022/03/07 04:44:38;;;;;;;11.35;7.05;;;;;;;1.00;77.01;94811.50;5029356;28;20029;-57
2022/03/07 04:47:03;;;;;;;13.57;7.20;;;;;;;1.36;77.33;94876.50;5029428;28;20403;-57
2022/03/07 04:49:29;;;;;;;13.50;8.65;;;;;;;1.39;78.18;94897.56;5028854;28;20441;-57
2022/03/07 04:51:54;;;;;;;13.70;10.20;;;;;;;1.24;78.97;94903.94;5029159;28;20028;-57
2022/03/07 04:54:20;;;;;;;12.13;8.75;;;;;;;1.24;79.53;94898.84;5029157;28;20033;-60
2022/03/07 04:56:47;;;;;;;16.05;9.20;;;;;;;1.00;79.25;94871.59;5029119;28;20035;-59
2022/03/07 04:59:13;;;;;;;13.95;9.15;;;;;;;1.29;79.33;94898.72;5029449;28;20467;-58
2022/03/07 05:01:39;;;;;;;15.20;10.43;;;;;;;1.37;79.42;94895.97;5028667;28;20029;-61
2022/03/07 05:04:04;;;;;;;13.30;9.80;;;;;;;1.40;78.92;94898.44;5028966;28;20428;-58
2022/03/07 05:06:30;;;;;;;18.10;10.25;;;;;;;1.41;78.73;94900.06;5028985;28;20025;-64
2022/03/07 05:08:55;;;;;;;11.73;7.88;;;;;;;0.77;78.41;94826.56;5028601;28;20080;-61
2022/03/07 05:11:21;;;;;;;11.70;7.93;;;;;;;1.19;78.55;94902.41;5028867;28;20034;-60
2022/03/07 05:13:46;;;;;;;11.63;8.07;;;;;;;0.95;78.29;94873.44;5028061;28;20065;-58
2022/03/07 05:16:12;;;;;;;10.80;7.63;;;;;;;0.90;78.18;94855.78;5029071;28;20074;-58
2022/03/07 05:18:37;;;;;;;11.32;8.02;;;;;;;1.09;78.05;94899.28;5028890;28;20448;-59
2022/03/07 05:21:03;;;;;;;10.80;7.40;;;;;;;1.13;78.13;94905.09;5028581;28;20721;-61
2022/03/07 05:23:29;;;;;;;9.65;6.70;;;;;;;1.10;77.80;94906.03;5028567;28;20068;-63
2022/03/07 05:25:55;;;;;;;9.88;6.82;;;;;;;0.98;77.60;94889.41;5027958;28;20472;-60
2022/03/07 05:28:21;;;;;;;10.38;6.50;;;;;;;1.05;77.74;94903.63;5028707;28;20034;-57
2022/03/07 05:30:46;;;;;;;9.48;6.32;;;;;;;1.07;77.02;94878.19;5028649;28;20091;-58
2022/03/07 05:33:12;;;;;;;9.50;6.07;;;;;;;1.00;77.15;94869.91;5028524;28;20029;-59
2022/03/07 05:35:37;;;;;;;11.57;6.95;;;;;;;0.59;77.29;94797.44;5028015;28;20170;-58
2022/03/07 05:38:04;;;;;;;11.70;6.95;;;;;;;1.30;77.77;94897.84;5026418;28;20026;-62
2022/03/07 05:40:29;;;;;;;12.07;6.88;;;;;;;1.20;77.58;94878.69;5028497;28;20048;-60
2022/03/07 05:42:55;;;;;;;11.13;6.40;;;;;;;1.43;77.32;94909.31;5028192;28;20684;-56
2022/03/07 05:45:20;;;;;;;10.70;6.85;;;;;;;1.41;76.92;94911.09;5030083;28;20034;-59
2022/03/07 05:47:46;;;;;;;11.32;7.35;;;;;;;0.80;77.59;94837.44;5048139;28;20033;-58
2022/03/07 05:50:11;;;;;;;11.07;6.65;;;;;;;1.19;77.77;94884.63;5047593;28;20044;-59
2022/03/07 05:52:37;;;;;;;10.65;6.57;;;;;;;1.26;78.20;94907.28;5047464;28;20024;-58
2022/03/07 05:55:05;;;;;;;9.48;6.55;;;;;;;1.20;77.87;94893.91;5047844;28;20106;-58
2022/03/07 05:57:30;;;;;;;11.82;6.70;;;;;;;1.29;77.85;94907.16;5047946;28;20079;-63
2022/03/07 05:59:56;;;;;;;9.75;6.88;;;;;;;1.25;77.55;94887.00;5048007;28;20690;-58
2022/03/07 06:02:21;;;;;;;9.70;6.38;;;;;;;1.02;77.72;94858.00;5038490;28;20664;-58
2022/03/07 06:04:47;;;;;;;11.52;7.25;;;;;;;1.54;77.35;94898.00;5041780;28;20029;-58
2022/03/07 06:07:12;;;;;;;10.13;7.75;;;;;;;1.58;77.39;94895.34;5048060;28;20117;-58
2022/03/07 06:09:38;;;;;;;11.88;6.93;;;;;;;1.75;76.71;94911.78;5038195;28;20496;-60
2022/03/07 06:12:05;;;;;;;11.80;7.57;;;;;;;1.53;76.57;94846.34;5036808;28;20101;-59
2022/03/07 06:14:30;;;;;;;9.52;6.50;;;;;;;1.99;75.95;94905.94;5036483;28;20049;-66
2022/03/07 06:16:56;;;;;;;11.65;7.80;;;;;;;1.81;75.55;94868.38;5038175;28;20037;-57
2022/03/07 06:19:21;;;;;;;10.73;7.20;;;;;;;2.15;75.43;94910.56;5027844;28;20112;-60
2022/03/07 06:21:46;;;;;;;10.10;7.35;;;;;;;2.06;75.16;94882.88;5027757;28;20055;-58
2022/03/07 06:24:12;;;;;;;10.05;7.57;;;;;;;2.32;74.68;94902.38;5027827;28;20030;-57
2022/03/07 06:26:38;;;;;;;12.65;8.52;;;;;;;2.29;74.30;94913.47;5027352;28;20137;-60
2022/03/07 06:29:05;;;;;;;13.07;8.80;;;;;;;2.28;74.34;94909.28;5027440;28;20428;-55
2022/03/07 06:31:32;;;;;;;13.35;8.40;;;;;;;2.43;74.54;94907.94;5028035;28;20381;-59
2022/03/07 06:33:57;;;;;;;12.55;8.95;;;;;;;2.40;74.01;94885.16;5027987;28;20029;-59
2022/03/07 06:36:23;;;;;;;12.27;9.13;;;;;;;2.45;74.45;94867.19;5024848;28;20491;-62
2022/03/07 06:38:49;;;;;;;13.40;9.65;;;;;;;2.64;74.03;94855.50;5037102;28;20032;-60
2022/03/07 06:41:14;;;;;;;20.40;11.25;;;;;;;2.85;72.56;94848.78;5030681;28;20068;-60
2022/03/07 06:43:40;;;;;;;15.15;11.13;;;;;;;3.40;71.71;94903.75;5024935;28;20053;-62
2022/03/07 06:46:05;;;;;;;13.90;10.48;;;;;;;2.92;70.53;94806.13;5026467;28;20450;-61
2022/03/07 06:48:31;;;;;;;15.60;10.55;;;;;;;3.57;69.83;94900.56;5027217;28;20087;-60
2022/03/07 06:50:57;;;;;;;13.55;10.82;;;;;;;3.48;70.09;94864.34;5030160;28;20056;-60
2022/03/07 06:53:22;;;;;;;15.63;9.65;;;;;;;3.92;69.02;94903.50;5028424;28;20033;-59
2022/03/07 06:55:48;;;;;;;14.13;9.18;;;;;;;3.93;68.46;94898.34;5030260;28;20033;-60
2022/03/07 06:58:13;;;;;;;12.63;9.00;;;;;;;4.10;66.95;94902.78;5027485;28;20053;-59
2022/03/07 07:00:39;;;;;;;11.07;8.95;;;;;;;3.88;67.04;94876.47;5027194;28;20036;-62
2022/03/07 07:03:05;;;;;;;11.98;7.85;;;;;;;4.00;67.06;94881.06;5029657;28;20061;-61
2022/03/07 07:05:32;;;;;;;11.40;8.10;;;;;;;4.14;66.60;94904.31;5038347;28;20515;-64
2022/03/07 07:07:58;;;;;;;11.85;8.00;;;;;;;3.88;66.06;94861.16;5031714;28;20518;-62
2022/03/07 07:10:25;;;;;;;30.88;13.30;;;;;;;3.97;66.76;94892.25;5034202;28;20040;-66
2022/03/07 07:12:51;;;;;;;31.95;15.32;;;;;;;3.98;67.05;94893.88;5032266;28;20033;-60
2022/03/07 07:15:16;;;;;;;19.45;11.68;;;;;;;4.15;67.18;94900.03;5030738;28;20037;-63
2022/03/07 07:17:42;;;;;;;12.38;8.75;;;;;;;4.21;67.11;94910.00;5026367;28;20095;-67
2022/03/07 07:20:10;;;;;;;12.68;9.32;;;;;;;4.15;66.45;94895.78;5041377;28;20488;-60
2022/03/07 07:22:36;;;;;;;14.77;9.10;;;;;;;4.26;66.92;94907.28;5028098;28;20073;-60
2022/03/07 07:25:02;;;;;;;14.95;10.25;;;;;;;4.32;66.27;94909.59;5027345;28;20077;-60
2022/03/07 07:27:28;;;;;;;12.68;9.48;;;;;;;4.11;66.50;94884.03;5029709;28;20040;-63
2022/03/07 07:29:54;;;;;;;14.52;9.13;;;;;;;4.21;65.95;94894.69;5028862;28;20049;-61
2022/03/07 07:32:21;;;;;;;13.98;9.93;;;;;;;4.17;66.02;94883.78;5045929;28;20454;-64
2022/03/07 07:34:46;;;;;;;16.63;10.88;;;;;;;4.40;65.85;94910.13;5050879;28;20017;-61
2022/03/07 07:37:12;;;;;;;15.55;10.88;;;;;;;4.36;66.47;94911.97;5050141;28;20028;-69
2022/03/07 07:39:38;;;;;;;13.88;9.85;;;;;;;4.40;65.26;94915.22;5050790;28;20032;-70
2022/03/07 07:42:04;;;;;;;12.98;9.40;;;;;;;4.51;64.88;94912.22;5047177;28;20045;-73
2022/03/07 07:44:29;;;;;;;14.15;10.27;;;;;;;4.32;64.72;94895.09;5029928;28;20048;-68
2022/03/07 07:46:55;;;;;;;13.27;10.35;;;;;;;4.53;64.99;94928.31;5039657;28;20033;-64
2022/03/07 07:49:23;;;;;;;12.25;9.32;;;;;;;4.41;64.24;94915.16;5050179;28;20033;-63
2022/03/07 07:51:49;;;;;;;12.52;9.35;;;;;;;4.45;64.45;94927.81;5050732;28;20037;-73
2022/03/07 07:54:15;;;;;;;12.77;8.80;;;;;;;4.40;64.14;94921.16;5050495;28;20437;-67
2022/03/07 07:56:40;;;;;;;13.20;8.85;;;;;;;3.56;64.17;94814.75;5050362;28;20033;-62
2022/03/07 07:59:06;;;;;;;12.48;8.35;;;;;;;4.27;63.60;94901.28;5048487;28;20045;-61
2022/03/07 08:01:31;;;;;;;13.45;8.05;;;;;;;4.43;63.23;94930.41;5050085;28;20017;-60
2022/03/07 08:03:57;;;;;;;12.60;8.80;;;;;;;4.30;63.64;94880.75;5050013;28;20544;-61
2022/03/07 08:06:23;;;;;;;14.20;9.10;;;;;;;4.66;62.71;94923.56;5050181;28;20024;-66
2022/03/07 08:08:49;;;;;;;11.30;8.48;;;;;;;4.49;62.33;94880.81;5049147;28;20447;-64
2022/03/07 08:11:14;;;;;;;11.75;8.20;;;;;;;4.72;62.26;94913.06;5049639;28;20029;-64
2022/03/07 08:13:40;;;;;;;10.98;8.35;;;;;;;4.58;62.30;94878.72;5049264;28;20045;-69
2022/03/07 08:16:05;;;;;;;12.43;8.88;;;;;;;4.81;62.24;94917.78;5049630;28;20120;-67
2022/03/07 08:18:30;;;;;;;10.32;7.82;;;;;;;4.83;61.78;94923.66;5050016;28;20024;-60
2022/03/07 08:20:59;;;;;;;11.18;8.07;;;;;;;4.53;61.62;94888.28;5050072;28;20451;-62
2022/03/07 08:23:25;;;;;;;11.38;9.18;;;;;;;4.74;61.93;94922.31;5050454;28;20028;-68
2022/03/07 08:25:51;;;;;;;11.60;8.82;;;;;;;4.63;62.34;94877.69;5048997;28;20098;-66
2022/03/07 08:28:16;;;;;;;13.10;10.20;;;;;;;4.60;60.20;94869.25;5049413;28;20106;-67
2022/03/07 08:30:42;;;;;;;11.90;10.02;;;;;;;4.89;60.95;94930.25;5049577;28;20036;-64
2022/03/07 08:33:07;;;;;;;13.57;9.85;;;;;;;4.64;61.57;94892.13;5049555;28;20029;-61
2022/03/07 08:35:33;;;;;;;15.85;9.88;;;;;;;4.83;61.27;94916.00;5049281;28;20056;-65
2022/03/07 08:37:58;;;;;;;14.07;10.85;;;;;;;4.85;61.74;94932.09;5048560;28;20039;-66
2022/03/07 08:40:25;;;;;;;18.85;13.25;;;;;;;4.87;61.50;94932.03;5049176;28;20056;-67
2022/03/07 08:42:51;;;;;;;20.17;15.45;;;;;;;4.63;63.38;94932.16;5049121;28;20021;-63
2022/03/07 08:45:16;;;;;;;23.70;17.60;;;;;;;4.27;65.51;94930.19;5049270;28;20021;-67
2022/03/07 08:47:42;;;;;;;20.50;16.25;;;;;;;4.28;65.18;94936.13;5048954;28;20086;-66
2022/03/07 08:50:10;;;;;;;23.30;16.38;;;;;;;4.41;64.44;94935.59;5048466;28;20036;-65
2022/03/07 08:52:36;;;;;;;20.98;17.17;;;;;;;4.19;64.99;94896.50;5049214;28;20024;-61
2022/03/07 08:55:04;;;;;;;21.65;15.38;;;;;;;4.29;64.65;94933.50;5049257;28;20036;-63
2022/03/07 08:57:30;;;;;;;20.75;15.00;;;;;;;4.07;66.14;94938.63;5048607;28;20028;-62
2022/03/07 08:59:55;;;;;;;22.13;15.45;;;;;;;3.65;67.15;94921.53;5048705;28;20039;-69
2022/03/07 09:02:20;;;;;;;22.35;14.27;;;;;;;4.03;66.68;94919.22;5048872;28;20041;-66
2022/03/07 09:04:46;;;;;;;19.80;14.85;;;;;;;3.84;65.79;94904.63;5049334;28;20036;-62
2022/03/07 09:07:11;;;;;;;19.02;13.85;;;;;;;4.20;65.78;94941.56;5049268;28;20479;-65
2022/03/07 09:09:37;;;;;;;24.13;15.80;;;;;;;3.60;65.86;94883.44;5047758;28;20400;-62
2022/03/07 09:12:04;;;;;;;17.23;12.40;;;;;;;4.01;66.11;94942.25;5048970;28;20112;-65
2022/03/07 09:14:30;;;;;;;17.75;13.18;;;;;;;3.98;65.36;94941.53;5048664;28;20484;-61
2022/03/07 09:16:55;;;;;;;18.30;12.60;;;;;;;3.92;65.89;94940.06;5048641;28;20039;-62
2022/03/07 09:19:21;;;;;;;13.18;10.35;;;;;;;4.04;64.41;94926.81;5048716;28;20025;-64
2022/03/07 09:21:47;;;;;;;12.88;9.63;;;;;;;4.09;64.51;94934.31;5047053;28;20529;-60
2022/03/07 09:24:12;;;;;;;14.63;10.18;;;;;;;4.37;64.13;94931.47;5048354;28;20089;-64
2022/03/07 09:26:38;;;;;;;16.48;11.38;;;;;;;3.83;63.62;94914.88;5046375;28;20063;-62
2022/03/07 09:29:04;;;;;;;9.95;6.78;;;;;;;4.07;62.32;94930.97;5046117;28;20646;-65
2022/03/07 09:31:29;;;;;;;11.50;7.10;;;;;;;4.47;61.46;94938.78;5048484;28;20276;-63
2022/03/07 09:33:55;;;;;;;17.98;8.98;;;;;;;4.23;60.37;94898.00;5048486;28;20082;-64
2022/03/07 09:36:21;;;;;;;11.98;7.68;;;;;;;4.51;59.81;94928.38;5047803;28;20035;-62
2022/03/07 09:38:47;;;;;;;9.20;5.82;;;;;;;4.53;58.61;94898.50;5048266;28;20021;-62
2022/03/07 09:41:12;;;;;;;6.65;5.22;;;;;;;4.61;58.92;94908.41;5046948;28;20048;-61
2022/03/07 09:43:38;;;;;;;8.38;6.15;;;;;;;4.65;58.01;94904.81;5048390;28;20190;-71
2022/03/07 09:46:04;;;;;;;7.65;5.38;;;;;;;4.30;57.90;94827.16;5047430;28;20044;-62
2022/03/07 09:48:29;;;;;;;7.50;5.40;;;;;;;4.96;57.33;94922.25;5047337;28;20400;-63
2022/03/07 09:50:56;;;;;;;9.02;6.68;;;;;;;4.74;58.35;94918.97;5048095;28;20052;-63
2022/03/07 09:53:21;;;;;;;9.90;6.13;;;;;;;4.60;58.96;94919.50;5047745;28;20425;-62
2022/03/07 09:55:47;;;;;;;7.82;6.07;;;;;;;4.56;59.02;94906.03;5048110;28;20037;-63
2022/03/07 09:58:13;;;;;;;8.73;6.03;;;;;;;4.84;57.50;94887.00;5047808;28;20040;-62
2022/03/07 10:00:41;;;;;;;11.18;7.35;;;;;;;5.19;56.95;94906.81;5047182;28;20492;-60
2022/03/07 10:03:12;;;;;;;10.40;7.65;;;;;;;4.96;57.82;94913.75;5047925;28;20108;-63
2022/03/07 10:05:40;;;;;;;7.00;4.95;;;;;;;4.94;58.21;94918.94;5048345;28;20468;-60
2022/03/07 10:08:07;;;;;;;9.57;6.05;;;;;;;4.68;57.95;94878.34;5047936;28;20032;-64
2022/03/07 10:10:40;;;;;;;11.13;7.57;;;;;;;4.96;58.03;94914.56;5048165;28;20356;-62
2022/03/07 10:13:12;;;;;;;8.70;5.93;;;;;;;5.23;56.61;94906.63;5047477;28;20468;-62
2022/03/07 10:15:40;;;;;;;23.38;13.65;;;;;;;5.09;57.91;94912.31;5047823;28;20033;-67
2022/03/07 10:18:11;;;;;;;8.27;5.50;;;;;;;4.40;57.16;94877.75;5040931;28;20173;-67
2022/03/07 10:20:48;;;;;;;7.47;5.65;;;;;;;4.53;58.22;94925.78;5047985;28;20079;-64
2022/03/07 10:23:13;;;;;;;7.60;5.85;;;;;;;4.31;59.14;94901.13;5053693;28;20024;-65
2022/03/07 10:25:42;;;;;;;9.63;6.85;;;;;;;3.85;60.55;94850.19;5053781;28;20033;-63
2022/03/07 10:28:08;;;;;;;8.98;7.07;;;;;;;4.01;60.00;94883.56;5053920;28;20064;-62
2022/03/07 10:30:36;;;;;;;9.70;6.88;;;;;;;4.57;59.05;94904.31;5054176;28;20047;-64
2022/03/07 10:33:04;;;;;;;8.98;6.68;;;;;;;4.77;58.71;94908.59;5054115;28;20036;-63
2022/03/07 10:35:37;;;;;;;11.18;7.43;;;;;;;4.96;57.86;94909.47;5054402;28;20480;-61
2022/03/07 10:38:17;;;;;;;8.38;6.50;;;;;;;4.84;58.98;94906.59;5054214;28;20067;-64
2022/03/07 10:40:51;;;;;;;10.82;7.50;;;;;;;4.89;58.77;94909.81;5054113;28;20029;-63
2022/03/07 10:43:18;;;;;;;9.50;6.80;;;;;;;4.93;58.23;94912.16;5053906;28;20468;-62
2022/03/07 10:45:58;;;;;;;9.48;7.00;;;;;;;5.09;57.67;94904.66;5054582;28;20017;-62
2022/03/07 10:48:27;;;;;;;9.77;7.03;;;;;;;4.85;57.79;94870.75;5054133;28;20061;-69
2022/03/07 10:50:58;;;;;;;9.35;7.65;;;;;;;4.66;58.10;94864.81;5053982;28;20091;-62
2022/03/07 10:53:24;;;;;;;10.88;7.20;;;;;;;4.77;58.06;94868.56;5053837;28;20103;-62
2022/03/07 10:55:55;;;;;;;11.90;7.72;;;;;;;5.17;57.74;94909.44;5053775;28;20116;-64
2022/03/07 10:58:22;;;;;;;10.52;7.93;;;;;;;4.98;57.71;94891.50;5053954;28;20066;-62
2022/03/07 11:00:56;;;;;;;12.90;9.15;;;;;;;5.18;57.90;94893.19;5054299;28;20086;-66
2022/03/07 11:03:24;;;;;;;14.07;9.43;;;;;;;5.09;58.70;94880.84;5055200;28;20025;-63
2022/03/07 11:05:50;;;;;;;16.27;8.80;;;;;;;5.20;58.61;94896.53;5055080;28;20675;-60
2022/03/07 11:08:17;;;;;;;14.52;10.15;;;;;;;5.22;58.46;94892.19;5055080;28;20033;-66
2022/03/07 11:10:47;;;;;;;13.85;11.43;;;;;;;4.99;58.01;94851.47;5052992;28;20434;-62
2022/03/07 11:13:16;;;;;;;13.55;9.43;;;;;;;5.12;57.58;94893.50;5054024;28;20058;-68
2022/03/07 11:15:44;;;;;;;15.27;10.63;;;;;;;4.85;58.33;94895.50;5054690;28;20021;-62
2022/03/07 11:18:11;;;;;;;10.65;8.32;;;;;;;4.71;57.95;94883.31;5054703;28;20079;-64
2022/03/07 11:20:39;;;;;;;12.48;8.77;;;;;;;4.53;58.23;94875.53;5054623;28;20029;-64
2022/03/07 11:23:05;;;;;;;12.68;9.50;;;;;;;4.29;59.24;94858.66;5054545;28;20035;-63
2022/03/07 11:25:31;;;;;;;13.18;9.30;;;;;;;4.48;59.01;94866.41;5054071;28;20037;-63
2022/03/07 11:27:56;;;;;;;14.77;10.32;;;;;;;4.70;58.76;94862.03;5054355;28;20476;-63
2022/03/07 11:30:24;;;;;;;11.95;9.60;;;;;;;4.77;58.37;94866.00;5054245;28;20036;-63